sensor_id;sensor_type;location;lat;lon;timestamp;temperature;humidity
24682;DHT22;12802;53.390;-2.328;2023-01-09T00:01:43;5.20;99.90
24682;DHT22;12802;53.390;-2.328;2023-01-09T00:04:10;5.20;99.90
24682;DHT22;12802;53.390;-2.328;2023-01-09T00:06:36;5.30;99.90
24682;DHT22;12802;53.390;-2.328;2023-01-09T00:09:02;5.30;99.90
24682;DHT22;12802;53.390;-2.328;2023-01-09T00:11:28;5.30;99.90
24682;DHT22;12802;53.390;-2.328;2023-01-09T00:13:54;5.40;99.90
24682;DHT22;12802;53.390;-2.328;2023-01-09T00:16:20;5.40;99.90
24682;DHT22;12802;53.390;-2.328;2023-01-09T00:18:46;5.40;99.90
24682;DHT22;12802;53.390;-2.328;2023-01-09T00:21:12;5.40;99.90
24682;DHT22;12802;53.390;-2.328;2023-01-09T00:23:39;5.30;99.90
24682;DHT22;12802;53.390;-2.328;2023-01-09T00:26:07;5.30;99.90
24682;DHT22;12802;53.390;-2.328;2023-01-09T00:28:34;5.20;99.90
24682;DHT22;12802;53.390;-2.328;2023-01-09T00:31:01;5.10;99.90
24682;DHT22;12802;53.390;-2.328;2023-01-09T00:33:45;5.20;99.90
24682;DHT22;12802;53.390;-2.328;2023-01-09T00:36:13;5.10;99.90
24682;DHT22;12802;53.390;-2.328;2023-01-09T00:38:39;5.10;99.90
24682;DHT22;12802;53.390;-2.328;2023-01-09T00:41:08;5.10;99.90
24682;DHT22;12802;53.390;-2.328;2023-01-09T00:43:45;5.10;99.90
24682;DHT22;12802;53.390;-2.328;2023-01-09T00:46:12;5.10;99.90
24682;DHT22;12802;53.390;-2.328;2023-01-09T00:48:40;5.00;99.90
24682;DHT22;12802;53.390;-2.328;2023-01-09T00:51:07;5.00;99.90
24682;DHT22;12802;53.390;-2.328;2023-01-09T00:53:35;4.90;99.90
24682;DHT22;12802;53.390;-2.328;2023-01-09T00:56:05;4.90;99.90
24682;DHT22;12802;53.390;-2.328;2023-01-09T00:58:33;4.80;99.90
24682;DHT22;12802;53.390;-2.328;2023-01-09T01:00:59;4.80;99.90
24682;DHT22;12802;53.390;-2.328;2023-01-09T01:03:25;4.70;99.90
24682;DHT22;12802;53.390;-2.328;2023-01-09T01:05:51;4.70;99.90
24682;DHT22;12802;53.390;-2.328;2023-01-09T01:08:35;4.70;99.90
24682;DHT22;12802;53.390;-2.328;2023-01-09T01:11:06;4.70;99.90
24682;DHT22;12802;53.390;-2.328;2023-01-09T01:13:38;4.70;99.90
24682;DHT22;12802;53.390;-2.328;2023-01-09T01:16:06;4.70;99.90
24682;DHT22;12802;53.390;-2.328;2023-01-09T01:18:32;4.60;99.90
24682;DHT22;12802;53.390;-2.328;2023-01-09T01:20:57;4.60;99.90
24682;DHT22;12802;53.390;-2.328;2023-01-09T01:23:23;4.70;99.90
24682;DHT22;12802;53.390;-2.328;2023-01-09T01:25:49;4.70;99.90
24682;DHT22;12802;53.390;-2.328;2023-01-09T01:28:15;4.70;99.90
24682;DHT22;12802;53.390;-2.328;2023-01-09T01:30:41;4.70;99.90
24682;DHT22;12802;53.390;-2.328;2023-01-09T01:33:08;4.70;99.90
24682;DHT22;12802;53.390;-2.328;2023-01-09T01:35:35;4.70;99.90
24682;DHT22;12802;53.390;-2.328;2023-01-09T01:38:00;4.60;99.90
24682;DHT22;12802;53.390;-2.328;2023-01-09T01:40:27;4.60;99.90
24682;DHT22;12802;53.390;-2.328;2023-01-09T01:42:53;4.60;99.90
24682;DHT22;12802;53.390;-2.328;2023-01-09T01:45:24;4.70;99.90
24682;DHT22;12802;53.390;-2.328;2023-01-09T01:47:57;4.80;99.90
24682;DHT22;12802;53.390;-2.328;2023-01-09T01:50:37;4.90;99.90
24682;DHT22;12802;53.390;-2.328;2023-01-09T01:53:23;4.90;99.90
24682;DHT22;12802;53.390;-2.328;2023-01-09T01:56:05;5.00;99.90
24682;DHT22;12802;53.390;-2.328;2023-01-09T01:58:37;4.90;99.90
24682;DHT22;12802;53.390;-2.328;2023-01-09T02:01:05;4.90;99.90
24682;DHT22;12802;53.390;-2.328;2023-01-09T02:03:31;4.90;99.90
24682;DHT22;12802;53.390;-2.328;2023-01-09T02:05:57;4.80;99.90
24682;DHT22;12802;53.390;-2.328;2023-01-09T02:08:23;4.70;99.90
24682;DHT22;12802;53.390;-2.328;2023-01-09T02:10:50;4.70;99.90
24682;DHT22;12802;53.390;-2.328;2023-01-09T02:13:17;4.70;99.90
24682;DHT22;12802;53.390;-2.328;2023-01-09T02:21:12;4.80;99.90
24682;DHT22;12802;53.390;-2.328;2023-01-09T02:26:50;4.80;99.90
24682;DHT22;12802;53.390;-2.328;2023-01-09T02:37:36;4.80;99.90
24682;DHT22;12802;53.390;-2.328;2023-01-09T02:40:25;4.80;99.90
24682;DHT22;12802;53.390;-2.328;2023-01-09T02:42:54;4.80;99.90
24682;DHT22;12802;53.390;-2.328;2023-01-09T02:45:21;4.80;99.90
24682;DHT22;12802;53.390;-2.328;2023-01-09T02:47:47;4.80;99.90
24682;DHT22;12802;53.390;-2.328;2023-01-09T02:50:20;4.80;99.90
24682;DHT22;12802;53.390;-2.328;2023-01-09T03:01:14;5.00;99.90
24682;DHT22;12802;53.390;-2.328;2023-01-09T03:07:06;5.10;99.90
24682;DHT22;12802;53.390;-2.328;2023-01-09T03:09:11;5.20;99.90
24682;DHT22;12802;53.390;-2.328;2023-01-09T03:11:43;5.20;99.90
24682;DHT22;12802;53.390;-2.328;2023-01-09T03:14:15;5.30;99.90
24682;DHT22;12802;53.390;-2.328;2023-01-09T03:16:45;5.20;99.90
24682;DHT22;12802;53.390;-2.328;2023-01-09T03:19:16;5.20;99.90
24682;DHT22;12802;53.390;-2.328;2023-01-09T03:21:44;5.20;99.90
24682;DHT22;12802;53.390;-2.328;2023-01-09T03:24:10;5.30;99.90
24682;DHT22;12802;53.390;-2.328;2023-01-09T03:26:36;5.20;99.90
24682;DHT22;12802;53.390;-2.328;2023-01-09T03:29:02;5.20;99.90
24682;DHT22;12802;53.390;-2.328;2023-01-09T03:31:28;5.10;99.90
24682;DHT22;12802;53.390;-2.328;2023-01-09T03:33:54;5.00;99.90
24682;DHT22;12802;53.390;-2.328;2023-01-09T03:36:20;5.00;99.90
24682;DHT22;12802;53.390;-2.328;2023-01-09T03:38:46;5.00;99.90
24682;DHT22;12802;53.390;-2.328;2023-01-09T03:41:12;5.00;99.90
24682;DHT22;12802;53.390;-2.328;2023-01-09T03:43:38;5.00;99.90
24682;DHT22;12802;53.390;-2.328;2023-01-09T03:46:04;4.90;99.90
24682;DHT22;12802;53.390;-2.328;2023-01-09T03:48:29;4.90;99.90
24682;DHT22;12802;53.390;-2.328;2023-01-09T03:50:55;4.90;99.90
24682;DHT22;12802;53.390;-2.328;2023-01-09T03:53:22;4.90;99.90
24682;DHT22;12802;53.390;-2.328;2023-01-09T03:55:51;4.80;99.90
24682;DHT22;12802;53.390;-2.328;2023-01-09T03:58:18;4.80;99.90
24682;DHT22;12802;53.390;-2.328;2023-01-09T04:00:45;4.80;99.90
24682;DHT22;12802;53.390;-2.328;2023-01-09T04:03:14;4.70;99.90
24682;DHT22;12802;53.390;-2.328;2023-01-09T04:05:40;4.70;99.90
24682;DHT22;12802;53.390;-2.328;2023-01-09T04:08:07;4.70;99.90
24682;DHT22;12802;53.390;-2.328;2023-01-09T04:10:33;4.60;99.90
24682;DHT22;12802;53.390;-2.328;2023-01-09T04:12:59;4.60;99.90
24682;DHT22;12802;53.390;-2.328;2023-01-09T04:15:24;4.50;99.90
24682;DHT22;12802;53.390;-2.328;2023-01-09T04:17:50;4.40;99.90
24682;DHT22;12802;53.390;-2.328;2023-01-09T04:20:16;4.30;99.90
24682;DHT22;12802;53.390;-2.328;2023-01-09T04:22:43;4.40;99.90
24682;DHT22;12802;53.390;-2.328;2023-01-09T04:25:09;4.50;99.90
24682;DHT22;12802;53.390;-2.328;2023-01-09T04:27:35;4.50;99.90
24682;DHT22;12802;53.390;-2.328;2023-01-09T04:30:01;4.50;99.90
24682;DHT22;12802;53.390;-2.328;2023-01-09T04:32:27;4.50;99.90
24682;DHT22;12802;53.390;-2.328;2023-01-09T04:34:53;4.50;99.90
24682;DHT22;12802;53.390;-2.328;2023-01-09T04:37:20;4.50;99.90
24682;DHT22;12802;53.390;-2.328;2023-01-09T04:39:46;4.40;99.90
24682;DHT22;12802;53.390;-2.328;2023-01-09T04:42:12;4.50;99.90
24682;DHT22;12802;53.390;-2.328;2023-01-09T04:44:39;4.50;99.90
24682;DHT22;12802;53.390;-2.328;2023-01-09T04:47:04;4.50;99.90
24682;DHT22;12802;53.390;-2.328;2023-01-09T04:49:30;4.60;99.90
24682;DHT22;12802;53.390;-2.328;2023-01-09T04:51:56;4.70;99.90
24682;DHT22;12802;53.390;-2.328;2023-01-09T04:54:22;4.80;99.90
24682;DHT22;12802;53.390;-2.328;2023-01-09T04:56:48;4.90;99.90
24682;DHT22;12802;53.390;-2.328;2023-01-09T04:59:14;4.90;99.90
24682;DHT22;12802;53.390;-2.328;2023-01-09T05:01:40;5.00;99.90
24682;DHT22;12802;53.390;-2.328;2023-01-09T05:04:06;5.00;99.90
24682;DHT22;12802;53.390;-2.328;2023-01-09T05:06:32;5.10;99.90
24682;DHT22;12802;53.390;-2.328;2023-01-09T05:08:59;5.10;99.90
24682;DHT22;12802;53.390;-2.328;2023-01-09T05:11:25;5.10;99.90
24682;DHT22;12802;53.390;-2.328;2023-01-09T05:13:52;5.10;99.90
24682;DHT22;12802;53.390;-2.328;2023-01-09T05:16:19;5.20;99.90
24682;DHT22;12802;53.390;-2.328;2023-01-09T05:18:45;5.10;99.90
24682;DHT22;12802;53.390;-2.328;2023-01-09T05:21:11;5.10;99.90
24682;DHT22;12802;53.390;-2.328;2023-01-09T05:23:37;5.00;99.90
24682;DHT22;12802;53.390;-2.328;2023-01-09T05:26:03;5.00;99.90
24682;DHT22;12802;53.390;-2.328;2023-01-09T05:28:29;4.90;99.90
24682;DHT22;12802;53.390;-2.328;2023-01-09T05:30:55;5.00;99.90
24682;DHT22;12802;53.390;-2.328;2023-01-09T05:33:21;5.00;99.90
24682;DHT22;12802;53.390;-2.328;2023-01-09T05:35:47;4.90;99.90
24682;DHT22;12802;53.390;-2.328;2023-01-09T05:38:13;5.00;99.90
24682;DHT22;12802;53.390;-2.328;2023-01-09T05:40:39;5.00;99.90
24682;DHT22;12802;53.390;-2.328;2023-01-09T05:43:05;5.00;99.90
24682;DHT22;12802;53.390;-2.328;2023-01-09T05:45:30;5.10;99.90
24682;DHT22;12802;53.390;-2.328;2023-01-09T05:47:56;5.10;99.90
24682;DHT22;12802;53.390;-2.328;2023-01-09T05:50:22;5.10;99.90
24682;DHT22;12802;53.390;-2.328;2023-01-09T05:52:48;5.20;99.90
24682;DHT22;12802;53.390;-2.328;2023-01-09T05:55:13;5.20;99.90
24682;DHT22;12802;53.390;-2.328;2023-01-09T05:57:39;5.30;99.90
24682;DHT22;12802;53.390;-2.328;2023-01-09T06:00:06;5.30;99.90
24682;DHT22;12802;53.390;-2.328;2023-01-09T06:02:32;5.30;99.90
24682;DHT22;12802;53.390;-2.328;2023-01-09T06:04:58;5.30;99.90
24682;DHT22;12802;53.390;-2.328;2023-01-09T06:07:24;5.30;99.90
24682;DHT22;12802;53.390;-2.328;2023-01-09T06:09:49;5.30;99.90
24682;DHT22;12802;53.390;-2.328;2023-01-09T06:12:15;5.40;99.90
24682;DHT22;12802;53.390;-2.328;2023-01-09T06:14:41;5.40;99.90
24682;DHT22;12802;53.390;-2.328;2023-01-09T06:17:06;5.50;99.90
24682;DHT22;12802;53.390;-2.328;2023-01-09T06:19:33;5.50;99.90
24682;DHT22;12802;53.390;-2.328;2023-01-09T06:21:59;5.50;99.90
24682;DHT22;12802;53.390;-2.328;2023-01-09T06:24:24;5.50;99.90
24682;DHT22;12802;53.390;-2.328;2023-01-09T06:26:50;5.50;99.90
24682;DHT22;12802;53.390;-2.328;2023-01-09T06:29:16;5.50;99.90
24682;DHT22;12802;53.390;-2.328;2023-01-09T06:31:41;5.50;99.90
24682;DHT22;12802;53.390;-2.328;2023-01-09T06:34:07;5.50;99.90
24682;DHT22;12802;53.390;-2.328;2023-01-09T06:36:33;5.50;99.90
24682;DHT22;12802;53.390;-2.328;2023-01-09T06:38:59;5.50;99.90
24682;DHT22;12802;53.390;-2.328;2023-01-09T06:41:25;5.50;99.90
24682;DHT22;12802;53.390;-2.328;2023-01-09T06:43:51;5.50;99.90
24682;DHT22;12802;53.390;-2.328;2023-01-09T06:46:17;5.50;99.90
24682;DHT22;12802;53.390;-2.328;2023-01-09T06:48:42;5.50;99.90
24682;DHT22;12802;53.390;-2.328;2023-01-09T06:51:08;5.50;99.90
24682;DHT22;12802;53.390;-2.328;2023-01-09T06:53:34;5.50;99.90
24682;DHT22;12802;53.390;-2.328;2023-01-09T06:55:59;5.50;99.90
24682;DHT22;12802;53.390;-2.328;2023-01-09T06:58:27;5.50;99.90
24682;DHT22;12802;53.390;-2.328;2023-01-09T07:00:53;5.50;99.90
24682;DHT22;12802;53.390;-2.328;2023-01-09T07:03:21;5.60;99.90
24682;DHT22;12802;53.390;-2.328;2023-01-09T07:05:48;5.60;99.90
24682;DHT22;12802;53.390;-2.328;2023-01-09T07:08:14;5.60;99.90
24682;DHT22;12802;53.390;-2.328;2023-01-09T07:10:41;5.70;99.90
24682;DHT22;12802;53.390;-2.328;2023-01-09T07:13:07;5.70;99.90
24682;DHT22;12802;53.390;-2.328;2023-01-09T07:15:33;5.80;99.90
24682;DHT22;12802;53.390;-2.328;2023-01-09T07:17:59;5.90;99.90
24682;DHT22;12802;53.390;-2.328;2023-01-09T07:20:25;5.90;99.90
24682;DHT22;12802;53.390;-2.328;2023-01-09T07:22:50;5.90;99.90
24682;DHT22;12802;53.390;-2.328;2023-01-09T07:25:16;6.00;99.90
24682;DHT22;12802;53.390;-2.328;2023-01-09T07:27:42;6.00;99.90
24682;DHT22;12802;53.390;-2.328;2023-01-09T07:30:08;6.10;99.90
24682;DHT22;12802;53.390;-2.328;2023-01-09T07:32:34;6.10;99.90
24682;DHT22;12802;53.390;-2.328;2023-01-09T07:35:00;6.10;99.90
24682;DHT22;12802;53.390;-2.328;2023-01-09T07:37:26;6.20;99.90
24682;DHT22;12802;53.390;-2.328;2023-01-09T07:39:52;6.20;99.90
24682;DHT22;12802;53.390;-2.328;2023-01-09T07:42:18;6.20;99.90
24682;DHT22;12802;53.390;-2.328;2023-01-09T07:44:44;6.30;99.90
24682;DHT22;12802;53.390;-2.328;2023-01-09T07:47:09;6.20;99.90
24682;DHT22;12802;53.390;-2.328;2023-01-09T07:49:35;6.20;99.90
24682;DHT22;12802;53.390;-2.328;2023-01-09T07:52:01;6.20;99.90
24682;DHT22;12802;53.390;-2.328;2023-01-09T07:54:27;6.20;99.90
24682;DHT22;12802;53.390;-2.328;2023-01-09T07:56:52;6.20;99.90
24682;DHT22;12802;53.390;-2.328;2023-01-09T07:59:18;6.10;99.90
24682;DHT22;12802;53.390;-2.328;2023-01-09T08:01:44;6.20;99.90
24682;DHT22;12802;53.390;-2.328;2023-01-09T08:04:10;6.20;99.90
24682;DHT22;12802;53.390;-2.328;2023-01-09T08:06:35;6.20;99.90
24682;DHT22;12802;53.390;-2.328;2023-01-09T08:09:01;6.30;99.90
24682;DHT22;12802;53.390;-2.328;2023-01-09T08:11:27;6.30;99.90
24682;DHT22;12802;53.390;-2.328;2023-01-09T08:13:53;6.40;99.90
24682;DHT22;12802;53.390;-2.328;2023-01-09T08:16:18;6.30;99.90
24682;DHT22;12802;53.390;-2.328;2023-01-09T08:18:44;6.40;99.90
24682;DHT22;12802;53.390;-2.328;2023-01-09T08:21:10;6.30;99.90
24682;DHT22;12802;53.390;-2.328;2023-01-09T08:23:36;6.20;99.90
24682;DHT22;12802;53.390;-2.328;2023-01-09T08:26:03;6.10;99.90
24682;DHT22;12802;53.390;-2.328;2023-01-09T08:28:29;6.00;99.90
24682;DHT22;12802;53.390;-2.328;2023-01-09T08:30:55;6.00;99.90
24682;DHT22;12802;53.390;-2.328;2023-01-09T08:33:21;6.00;99.90
24682;DHT22;12802;53.390;-2.328;2023-01-09T08:35:47;6.00;99.90
24682;DHT22;12802;53.390;-2.328;2023-01-09T08:38:12;6.10;99.90
24682;DHT22;12802;53.390;-2.328;2023-01-09T08:40:38;6.10;99.90
24682;DHT22;12802;53.390;-2.328;2023-01-09T08:43:05;6.20;99.90
24682;DHT22;12802;53.390;-2.328;2023-01-09T08:45:49;6.20;99.90
24682;DHT22;12802;53.390;-2.328;2023-01-09T08:48:33;6.30;99.90
24682;DHT22;12802;53.390;-2.328;2023-01-09T08:50:59;6.40;99.90
24682;DHT22;12802;53.390;-2.328;2023-01-09T08:53:25;6.40;99.90
24682;DHT22;12802;53.390;-2.328;2023-01-09T08:55:50;6.40;99.90
24682;DHT22;12802;53.390;-2.328;2023-01-09T08:58:16;6.50;99.90
24682;DHT22;12802;53.390;-2.328;2023-01-09T09:00:42;6.50;99.90
24682;DHT22;12802;53.390;-2.328;2023-01-09T09:03:08;6.50;99.90
24682;DHT22;12802;53.390;-2.328;2023-01-09T09:05:35;6.50;99.90
24682;DHT22;12802;53.390;-2.328;2023-01-09T09:08:01;6.50;99.90
24682;DHT22;12802;53.390;-2.328;2023-01-09T09:10:28;6.60;99.90
24682;DHT22;12802;53.390;-2.328;2023-01-09T09:12:56;6.60;99.90
24682;DHT22;12802;53.390;-2.328;2023-01-09T09:15:23;6.60;99.90
24682;DHT22;12802;53.390;-2.328;2023-01-09T09:17:57;6.60;99.90
24682;DHT22;12802;53.390;-2.328;2023-01-09T09:20:26;6.60;99.90
24682;DHT22;12802;53.390;-2.328;2023-01-09T09:22:53;6.60;99.90
24682;DHT22;12802;53.390;-2.328;2023-01-09T09:25:19;6.60;99.90
24682;DHT22;12802;53.390;-2.328;2023-01-09T09:27:45;6.60;99.90
24682;DHT22;12802;53.390;-2.328;2023-01-09T09:30:12;6.60;99.90
24682;DHT22;12802;53.390;-2.328;2023-01-09T09:32:40;6.60;99.90
24682;DHT22;12802;53.390;-2.328;2023-01-09T09:35:06;6.70;99.90
24682;DHT22;12802;53.390;-2.328;2023-01-09T09:37:32;6.70;99.90
24682;DHT22;12802;53.390;-2.328;2023-01-09T09:39:59;6.70;99.90
24682;DHT22;12802;53.390;-2.328;2023-01-09T09:42:38;6.70;99.90
24682;DHT22;12802;53.390;-2.328;2023-01-09T09:45:58;6.60;99.90
24682;DHT22;12802;53.390;-2.328;2023-01-09T09:53:35;6.70;99.90
24682;DHT22;12802;53.390;-2.328;2023-01-09T09:56:03;6.70;99.90
24682;DHT22;12802;53.390;-2.328;2023-01-09T09:58:39;6.80;99.90
24682;DHT22;12802;53.390;-2.328;2023-01-09T10:01:06;6.70;99.90
24682;DHT22;12802;53.390;-2.328;2023-01-09T10:03:36;6.80;99.90
24682;DHT22;12802;53.390;-2.328;2023-01-09T10:06:07;6.80;99.90
24682;DHT22;12802;53.390;-2.328;2023-01-09T10:08:45;6.80;99.90
24682;DHT22;12802;53.390;-2.328;2023-01-09T10:11:21;6.70;99.90
24682;DHT22;12802;53.390;-2.328;2023-01-09T10:13:49;6.70;99.90
24682;DHT22;12802;53.390;-2.328;2023-01-09T10:22:52;6.80;99.90
24682;DHT22;12802;53.390;-2.328;2023-01-09T10:39:24;7.00;99.90
24682;DHT22;12802;53.390;-2.328;2023-01-09T10:41:59;6.90;99.90
24682;DHT22;12802;53.390;-2.328;2023-01-09T10:44:32;6.90;99.90
24682;DHT22;12802;53.390;-2.328;2023-01-09T10:47:06;6.80;99.90
24682;DHT22;12802;53.390;-2.328;2023-01-09T10:49:34;6.80;99.90
24682;DHT22;12802;53.390;-2.328;2023-01-09T10:52:10;6.80;99.90
24682;DHT22;12802;53.390;-2.328;2023-01-09T10:57:46;6.90;99.90
24682;DHT22;12802;53.390;-2.328;2023-01-09T11:00:18;6.90;99.90
24682;DHT22;12802;53.390;-2.328;2023-01-09T11:02:44;6.90;99.90
24682;DHT22;12802;53.390;-2.328;2023-01-09T11:05:13;6.90;99.90
24682;DHT22;12802;53.390;-2.328;2023-01-09T11:07:41;6.90;99.90
24682;DHT22;12802;53.390;-2.328;2023-01-09T11:10:09;6.90;99.90
24682;DHT22;12802;53.390;-2.328;2023-01-09T11:12:39;6.90;99.90
24682;DHT22;12802;53.390;-2.328;2023-01-09T11:17:45;6.90;99.90
24682;DHT22;12802;53.390;-2.328;2023-01-09T11:20:18;6.90;99.90
24682;DHT22;12802;53.390;-2.328;2023-01-09T11:22:50;6.80;99.90
24682;DHT22;12802;53.390;-2.328;2023-01-09T11:25:18;6.80;99.90
24682;DHT22;12802;53.390;-2.328;2023-01-09T11:30:51;6.80;99.90
24682;DHT22;12802;53.390;-2.328;2023-01-09T11:33:23;6.80;99.90
24682;DHT22;12802;53.390;-2.328;2023-01-09T11:36:06;6.80;99.90
24682;DHT22;12802;53.390;-2.328;2023-01-09T11:38:50;6.80;99.90
24682;DHT22;12802;53.390;-2.328;2023-01-09T11:41:23;6.70;99.90
24682;DHT22;12802;53.390;-2.328;2023-01-09T11:43:52;6.70;99.90
24682;DHT22;12802;53.390;-2.328;2023-01-09T11:48:56;6.70;99.90
24682;DHT22;12802;53.390;-2.328;2023-01-09T11:51:25;6.80;99.90
24682;DHT22;12802;53.390;-2.328;2023-01-09T11:53:56;6.70;99.90
24682;DHT22;12802;53.390;-2.328;2023-01-09T11:56:23;6.70;99.90
24682;DHT22;12802;53.390;-2.328;2023-01-09T11:58:49;6.70;99.90
24682;DHT22;12802;53.390;-2.328;2023-01-09T12:04:37;6.80;99.90
24682;DHT22;12802;53.390;-2.328;2023-01-09T12:15:23;7.30;99.90
24682;DHT22;12802;53.390;-2.328;2023-01-09T12:23:40;7.50;99.90
24682;DHT22;12802;53.390;-2.328;2023-01-09T12:26:15;7.40;99.90
24682;DHT22;12802;53.390;-2.328;2023-01-09T12:40:27;7.40;99.90
24682;DHT22;12802;53.390;-2.328;2023-01-09T12:56:55;7.50;99.90
24682;DHT22;12802;53.390;-2.328;2023-01-09T13:00:05;7.50;99.90
24682;DHT22;12802;53.390;-2.328;2023-01-09T13:02:33;7.50;99.90
24682;DHT22;12802;53.390;-2.328;2023-01-09T13:05:17;7.50;99.90
24682;DHT22;12802;53.390;-2.328;2023-01-09T13:07:48;7.50;99.90
24682;DHT22;12802;53.390;-2.328;2023-01-09T13:10:36;7.50;99.90
24682;DHT22;12802;53.390;-2.328;2023-01-09T13:15:59;7.50;99.90
24682;DHT22;12802;53.390;-2.328;2023-01-09T13:18:37;7.50;99.90
24682;DHT22;12802;53.390;-2.328;2023-01-09T13:21:07;7.50;99.90
24682;DHT22;12802;53.390;-2.328;2023-01-09T13:24:06;7.50;99.90
24682;DHT22;12802;53.390;-2.328;2023-01-09T13:29:18;7.40;99.90
24682;DHT22;12802;53.390;-2.328;2023-01-09T13:34:32;7.50;99.90
24682;DHT22;12802;53.390;-2.328;2023-01-09T13:36:58;7.50;99.90
24682;DHT22;12802;53.390;-2.328;2023-01-09T13:39:30;7.60;99.90
24682;DHT22;12802;53.390;-2.328;2023-01-09T13:42:05;7.60;99.90
24682;DHT22;12802;53.390;-2.328;2023-01-09T13:44:53;7.60;99.90
24682;DHT22;12802;53.390;-2.328;2023-01-09T13:47:23;7.60;99.90
24682;DHT22;12802;53.390;-2.328;2023-01-09T14:05:10;7.50;99.90
24682;DHT22;12802;53.390;-2.328;2023-01-09T14:07:44;7.60;99.90
24682;DHT22;12802;53.390;-2.328;2023-01-09T14:10:22;7.70;99.90
24682;DHT22;12802;53.390;-2.328;2023-01-09T14:12:50;7.60;99.90
24682;DHT22;12802;53.390;-2.328;2023-01-09T14:15:35;7.70;99.90
24682;DHT22;12802;53.390;-2.328;2023-01-09T14:18:21;7.70;99.90
24682;DHT22;12802;53.390;-2.328;2023-01-09T14:21:03;7.70;99.90
24682;DHT22;12802;53.390;-2.328;2023-01-09T14:26:24;7.70;99.90
24682;DHT22;12802;53.390;-2.328;2023-01-09T14:34:55;7.70;99.90
24682;DHT22;12802;53.390;-2.328;2023-01-09T14:37:22;7.80;99.90
24682;DHT22;12802;53.390;-2.328;2023-01-09T14:39:49;7.80;99.90
24682;DHT22;12802;53.390;-2.328;2023-01-09T14:42:20;7.80;99.90
24682;DHT22;12802;53.390;-2.328;2023-01-09T14:44:52;7.80;99.90
24682;DHT22;12802;53.390;-2.328;2023-01-09T14:47:39;7.80;99.90
24682;DHT22;12802;53.390;-2.328;2023-01-09T14:55:32;7.80;99.90
24682;DHT22;12802;53.390;-2.328;2023-01-09T14:58:25;7.80;99.90
24682;DHT22;12802;53.390;-2.328;2023-01-09T15:01:03;7.80;99.90
24682;DHT22;12802;53.390;-2.328;2023-01-09T15:06:01;7.60;99.90
24682;DHT22;12802;53.390;-2.328;2023-01-09T15:08:27;7.50;99.90
24682;DHT22;12802;53.390;-2.328;2023-01-09T15:10:54;7.50;99.90
24682;DHT22;12802;53.390;-2.328;2023-01-09T15:13:31;7.50;99.90
24682;DHT22;12802;53.390;-2.328;2023-01-09T15:15:59;7.50;99.90
24682;DHT22;12802;53.390;-2.328;2023-01-09T15:18:29;7.50;99.90
24682;DHT22;12802;53.390;-2.328;2023-01-09T15:20:59;7.60;99.90
24682;DHT22;12802;53.390;-2.328;2023-01-09T15:23:26;7.60;99.90
24682;DHT22;12802;53.390;-2.328;2023-01-09T15:26:03;7.60;99.90
24682;DHT22;12802;53.390;-2.328;2023-01-09T15:28:42;7.60;99.90
24682;DHT22;12802;53.390;-2.328;2023-01-09T15:31:16;7.60;99.90
24682;DHT22;12802;53.390;-2.328;2023-01-09T15:33:45;7.60;99.90
24682;DHT22;12802;53.390;-2.328;2023-01-09T15:36:32;7.60;99.90
24682;DHT22;12802;53.390;-2.328;2023-01-09T15:38:57;7.60;99.90
24682;DHT22;12802;53.390;-2.328;2023-01-09T15:41:26;7.60;99.90
24682;DHT22;12802;53.390;-2.328;2023-01-09T15:44:15;7.60;99.90
24682;DHT22;12802;53.390;-2.328;2023-01-09T15:46:42;7.60;99.90
24682;DHT22;12802;53.390;-2.328;2023-01-09T15:49:11;7.70;99.90
24682;DHT22;12802;53.390;-2.328;2023-01-09T15:51:39;7.70;99.90
24682;DHT22;12802;53.390;-2.328;2023-01-09T15:54:12;7.60;99.90
24682;DHT22;12802;53.390;-2.328;2023-01-09T15:56:38;7.60;99.90
24682;DHT22;12802;53.390;-2.328;2023-01-09T15:59:26;7.50;99.90
24682;DHT22;12802;53.390;-2.328;2023-01-09T16:02:00;7.40;99.90
24682;DHT22;12802;53.390;-2.328;2023-01-09T16:04:46;7.30;99.90
24682;DHT22;12802;53.390;-2.328;2023-01-09T16:07:13;7.20;99.90
24682;DHT22;12802;53.390;-2.328;2023-01-09T16:09:43;7.00;99.90
24682;DHT22;12802;53.390;-2.328;2023-01-09T16:12:21;7.00;99.90
24682;DHT22;12802;53.390;-2.328;2023-01-09T16:14:56;6.90;99.90
24682;DHT22;12802;53.390;-2.328;2023-01-09T16:17:23;6.80;99.90
24682;DHT22;12802;53.390;-2.328;2023-01-09T16:19:51;6.80;99.90
24682;DHT22;12802;53.390;-2.328;2023-01-09T16:22:21;6.80;99.90
24682;DHT22;12802;53.390;-2.328;2023-01-09T16:24:48;6.70;99.90
24682;DHT22;12802;53.390;-2.328;2023-01-09T16:29:47;6.70;99.90
24682;DHT22;12802;53.390;-2.328;2023-01-09T16:34:55;6.70;99.90
24682;DHT22;12802;53.390;-2.328;2023-01-09T16:37:22;6.70;99.90
24682;DHT22;12802;53.390;-2.328;2023-01-09T16:42:35;6.70;99.90
24682;DHT22;12802;53.390;-2.328;2023-01-09T16:45:20;6.70;99.90
24682;DHT22;12802;53.390;-2.328;2023-01-09T16:47:45;6.70;99.90
24682;DHT22;12802;53.390;-2.328;2023-01-09T16:50:12;6.70;99.90
24682;DHT22;12802;53.390;-2.328;2023-01-09T16:52:38;6.80;99.90
24682;DHT22;12802;53.390;-2.328;2023-01-09T16:55:04;6.80;99.90
24682;DHT22;12802;53.390;-2.328;2023-01-09T16:57:30;6.80;99.90
24682;DHT22;12802;53.390;-2.328;2023-01-09T16:59:57;6.80;99.90
24682;DHT22;12802;53.390;-2.328;2023-01-09T17:02:26;6.90;99.90
24682;DHT22;12802;53.390;-2.328;2023-01-09T17:04:52;7.00;99.90
24682;DHT22;12802;53.390;-2.328;2023-01-09T17:07:22;7.00;99.90
24682;DHT22;12802;53.390;-2.328;2023-01-09T17:09:52;7.00;99.90
24682;DHT22;12802;53.390;-2.328;2023-01-09T17:12:22;7.10;99.90
24682;DHT22;12802;53.390;-2.328;2023-01-09T17:14:49;7.10;99.90
24682;DHT22;12802;53.390;-2.328;2023-01-09T17:17:16;7.20;99.90
24682;DHT22;12802;53.390;-2.328;2023-01-09T17:19:42;7.20;99.90
24682;DHT22;12802;53.390;-2.328;2023-01-09T17:22:08;7.20;99.90
24682;DHT22;12802;53.390;-2.328;2023-01-09T17:24:34;7.20;99.90
24682;DHT22;12802;53.390;-2.328;2023-01-09T17:27:24;7.20;99.90
24682;DHT22;12802;53.390;-2.328;2023-01-09T17:30:10;7.20;99.90
24682;DHT22;12802;53.390;-2.328;2023-01-09T17:32:35;7.20;99.90
24682;DHT22;12802;53.390;-2.328;2023-01-09T17:35:01;7.20;99.90
24682;DHT22;12802;53.390;-2.328;2023-01-09T17:37:27;7.20;99.90
24682;DHT22;12802;53.390;-2.328;2023-01-09T17:39:53;7.20;99.90
24682;DHT22;12802;53.390;-2.328;2023-01-09T17:42:24;7.30;99.90
24682;DHT22;12802;53.390;-2.328;2023-01-09T17:44:50;7.30;99.90
24682;DHT22;12802;53.390;-2.328;2023-01-09T17:47:16;7.30;99.90
24682;DHT22;12802;53.390;-2.328;2023-01-09T17:49:42;7.30;99.90
24682;DHT22;12802;53.390;-2.328;2023-01-09T17:52:08;7.40;99.90
24682;DHT22;12802;53.390;-2.328;2023-01-09T17:54:34;7.40;99.90
24682;DHT22;12802;53.390;-2.328;2023-01-09T17:57:00;7.40;99.90
24682;DHT22;12802;53.390;-2.328;2023-01-09T17:59:25;7.40;99.90
24682;DHT22;12802;53.390;-2.328;2023-01-09T18:01:51;7.40;99.90
24682;DHT22;12802;53.390;-2.328;2023-01-09T18:04:17;7.30;99.90
24682;DHT22;12802;53.390;-2.328;2023-01-09T18:06:43;7.30;99.90
24682;DHT22;12802;53.390;-2.328;2023-01-09T18:09:13;7.30;99.90
24682;DHT22;12802;53.390;-2.328;2023-01-09T18:11:40;7.30;99.90
24682;DHT22;12802;53.390;-2.328;2023-01-09T18:14:07;7.30;99.90
24682;DHT22;12802;53.390;-2.328;2023-01-09T18:16:32;7.30;99.90
24682;DHT22;12802;53.390;-2.328;2023-01-09T18:19:00;7.30;99.90